sensor_id;sensor_type;location;lat;lon;timestamp;temperature;humidity
65573;SHT30;52214;50.940;13.996;2022-08-01T00:00:36;20.44;71.69
65573;SHT30;52214;50.940;13.996;2022-08-01T00:03:01;20.48;71.23
65573;SHT30;52214;50.940;13.996;2022-08-01T00:05:27;20.39;70.76
65573;SHT30;52214;50.940;13.996;2022-08-01T00:07:52;20.37;71.23
65573;SHT30;52214;50.940;13.996;2022-08-01T00:10:18;20.29;71.47
65573;SHT30;52214;50.940;13.996;2022-08-01T00:12:45;20.37;70.05
65573;SHT30;52214;50.940;13.996;2022-08-01T00:15:12;20.45;68.89
65573;SHT30;52214;50.940;13.996;2022-08-01T00:17:39;20.48;68.43
65573;SHT30;52214;50.940;13.996;2022-08-01T00:20:06;20.45;68.28
65573;SHT30;52214;50.940;13.996;2022-08-01T00:22:33;20.34;69.58
65573;SHT30;52214;50.940;13.996;2022-08-01T00:24:58;20.49;68.45
65573;SHT30;52214;50.940;13.996;2022-08-01T00:27:24;20.39;69.10
65573;SHT30;52214;50.940;13.996;2022-08-01T00:29:49;20.49;67.97
65573;SHT30;52214;50.940;13.996;2022-08-01T00:34:47;20.34;68.70
65573;SHT30;52214;50.940;13.996;2022-08-01T00:37:13;20.24;69.62
65573;SHT30;52214;50.940;13.996;2022-08-01T00:39:38;20.04;70.14
65573;SHT30;52214;50.940;13.996;2022-08-01T00:42:08;19.97;69.76
65573;SHT30;52214;50.940;13.996;2022-08-01T00:44:35;19.89;70.06
65573;SHT30;52214;50.940;13.996;2022-08-01T00:47:00;19.76;70.66
65573;SHT30;52214;50.940;13.996;2022-08-01T00:49:27;19.79;70.66
65573;SHT30;52214;50.940;13.996;2022-08-01T00:51:52;19.73;71.38
65573;SHT30;52214;50.940;13.996;2022-08-01T00:54:18;19.73;71.17
65573;SHT30;52214;50.940;13.996;2022-08-01T00:56:44;19.77;71.40
65573;SHT30;52214;50.940;13.996;2022-08-01T00:59:11;19.69;71.22
65573;SHT30;52214;50.940;13.996;2022-08-01T01:01:37;19.62;72.18
65573;SHT30;52214;50.940;13.996;2022-08-01T01:04:03;19.62;72.33
65573;SHT30;52214;50.940;13.996;2022-08-01T01:09:44;19.61;72.58
65573;SHT30;52214;50.940;13.996;2022-08-01T01:12:13;19.45;73.00
65573;SHT30;52214;50.940;13.996;2022-08-01T01:15:08;19.48;73.11
65573;SHT30;52214;50.940;13.996;2022-08-01T01:17:56;19.29;73.83
65573;SHT30;52214;50.940;13.996;2022-08-01T01:20:42;19.14;74.27
65573;SHT30;52214;50.940;13.996;2022-08-01T01:31:21;18.49;73.89
65573;SHT30;52214;50.940;13.996;2022-08-01T01:33:48;18.41;74.33
65573;SHT30;52214;50.940;13.996;2022-08-01T01:36:16;18.45;74.19
65573;SHT30;52214;50.940;13.996;2022-08-01T01:38:45;18.42;74.49
65573;SHT30;52214;50.940;13.996;2022-08-01T01:41:11;18.44;74.44
65573;SHT30;52214;50.940;13.996;2022-08-01T01:43:39;18.41;74.57
65573;SHT30;52214;50.940;13.996;2022-08-01T01:46:06;18.42;74.18
65573;SHT30;52214;50.940;13.996;2022-08-01T01:48:33;18.34;74.22
65573;SHT30;52214;50.940;13.996;2022-08-01T01:51:00;18.27;74.15
65573;SHT30;52214;50.940;13.996;2022-08-01T01:53:28;18.27;74.12
65573;SHT30;52214;50.940;13.996;2022-08-01T01:55:55;18.19;74.37
65573;SHT30;52214;50.940;13.996;2022-08-01T01:58:24;18.21;74.53
65573;SHT30;52214;50.940;13.996;2022-08-01T02:00:52;18.10;74.78
65573;SHT30;52214;50.940;13.996;2022-08-01T02:03:19;18.15;74.46
65573;SHT30;52214;50.940;13.996;2022-08-01T02:05:46;18.05;74.75
65573;SHT30;52214;50.940;13.996;2022-08-01T02:08:15;18.01;75.47
65573;SHT30;52214;50.940;13.996;2022-08-01T02:10:42;17.93;75.73
65573;SHT30;52214;50.940;13.996;2022-08-01T02:13:34;17.89;76.90
65573;SHT30;52214;50.940;13.996;2022-08-01T02:16:02;17.70;78.30
65573;SHT30;52214;50.940;13.996;2022-08-01T02:18:28;17.59;79.36
65573;SHT30;52214;50.940;13.996;2022-08-01T02:20:55;17.52;79.31
65573;SHT30;52214;50.940;13.996;2022-08-01T02:23:23;17.40;79.54
65573;SHT30;52214;50.940;13.996;2022-08-01T02:25:53;17.34;79.49
65573;SHT30;52214;50.940;13.996;2022-08-01T02:28:25;17.32;79.61
65573;SHT30;52214;50.940;13.996;2022-08-01T02:31:02;17.35;80.11
65573;SHT30;52214;50.940;13.996;2022-08-01T02:33:41;17.35;80.85
65573;SHT30;52214;50.940;13.996;2022-08-01T02:36:08;17.53;81.13
65573;SHT30;52214;50.940;13.996;2022-08-01T02:38:39;17.70;81.05
65573;SHT30;52214;50.940;13.996;2022-08-01T02:41:08;17.70;81.01
65573;SHT30;52214;50.940;13.996;2022-08-01T02:43:37;17.83;80.84
65573;SHT30;52214;50.940;13.996;2022-08-01T02:46:06;17.69;80.98
65573;SHT30;52214;50.940;13.996;2022-08-01T02:48:35;17.69;81.23
65573;SHT30;52214;50.940;13.996;2022-08-01T02:51:03;17.67;81.32
65573;SHT30;52214;50.940;13.996;2022-08-01T02:53:32;17.70;81.54
65573;SHT30;52214;50.940;13.996;2022-08-01T02:56:04;17.65;81.73
65573;SHT30;52214;50.940;13.996;2022-08-01T02:58:31;17.69;81.40
65573;SHT30;52214;50.940;13.996;2022-08-01T03:00:59;17.70;82.01
65573;SHT30;52214;50.940;13.996;2022-08-01T03:03:26;17.76;81.76
65573;SHT30;52214;50.940;13.996;2022-08-01T03:05:52;17.74;81.77
65573;SHT30;52214;50.940;13.996;2022-08-01T03:08:19;17.79;82.19
65573;SHT30;52214;50.940;13.996;2022-08-01T03:10:46;17.76;82.25
65573;SHT30;52214;50.940;13.996;2022-08-01T03:13:13;17.73;81.97
65573;SHT30;52214;50.940;13.996;2022-08-01T03:15:41;17.76;82.05
65573;SHT30;52214;50.940;13.996;2022-08-01T03:18:10;17.82;81.96
65573;SHT30;52214;50.940;13.996;2022-08-01T03:20:36;17.94;81.28
65573;SHT30;52214;50.940;13.996;2022-08-01T03:23:05;17.96;81.18
65573;SHT30;52214;50.940;13.996;2022-08-01T03:25:32;18.00;81.50
65573;SHT30;52214;50.940;13.996;2022-08-01T03:28:02;18.14;81.59
65573;SHT30;52214;50.940;13.996;2022-08-01T03:30:29;18.12;81.26
65573;SHT30;52214;50.940;13.996;2022-08-01T03:32:56;18.04;81.38
65573;SHT30;52214;50.940;13.996;2022-08-01T03:35:26;18.42;77.72
65573;SHT30;52214;50.940;13.996;2022-08-01T03:37:54;18.52;77.85
65573;SHT30;52214;50.940;13.996;2022-08-01T03:40:24;18.76;76.35
65573;SHT30;52214;50.940;13.996;2022-08-01T03:42:58;18.76;76.27
65573;SHT30;52214;50.940;13.996;2022-08-01T03:45:26;18.73;76.95
65573;SHT30;52214;50.940;13.996;2022-08-01T03:47:58;18.83;75.95
65573;SHT30;52214;50.940;13.996;2022-08-01T03:50:28;18.90;76.48
65573;SHT30;52214;50.940;13.996;2022-08-01T03:52:57;18.89;76.28
65573;SHT30;52214;50.940;13.996;2022-08-01T03:55:25;18.77;77.33
65573;SHT30;52214;50.940;13.996;2022-08-01T03:57:51;18.69;78.55
65573;SHT30;52214;50.940;13.996;2022-08-01T04:00:17;18.72;79.51
65573;SHT30;52214;50.940;13.996;2022-08-01T04:02:47;18.56;79.84
65573;SHT30;52214;50.940;13.996;2022-08-01T04:05:14;18.49;79.54
65573;SHT30;52214;50.940;13.996;2022-08-01T04:07:45;18.42;79.76
65573;SHT30;52214;50.940;13.996;2022-08-01T04:10:12;18.29;79.84
65573;SHT30;52214;50.940;13.996;2022-08-01T04:12:38;18.25;79.91
65573;SHT30;52214;50.940;13.996;2022-08-01T04:15:04;18.19;80.20
65573;SHT30;52214;50.940;13.996;2022-08-01T04:17:30;18.24;80.15
65573;SHT30;52214;50.940;13.996;2022-08-01T04:19:56;18.27;80.17
65573;SHT30;52214;50.940;13.996;2022-08-01T04:22:22;18.35;79.95
65573;SHT30;52214;50.940;13.996;2022-08-01T04:24:49;18.32;80.54
65573;SHT30;52214;50.940;13.996;2022-08-01T04:27:23;18.45;80.63
65573;SHT30;52214;50.940;13.996;2022-08-01T04:29:50;18.48;81.05
65573;SHT30;52214;50.940;13.996;2022-08-01T04:32:18;18.52;81.34
65573;SHT30;52214;50.940;13.996;2022-08-01T04:34:46;18.57;80.78
65573;SHT30;52214;50.940;13.996;2022-08-01T04:37:12;18.74;79.67
65573;SHT30;52214;50.940;13.996;2022-08-01T04:39:39;18.86;79.15
65573;SHT30;52214;50.940;13.996;2022-08-01T04:42:07;18.84;79.04
65573;SHT30;52214;50.940;13.996;2022-08-01T04:44:32;18.89;79.83
65573;SHT30;52214;50.940;13.996;2022-08-01T04:46:59;18.80;80.65
65573;SHT30;52214;50.940;13.996;2022-08-01T04:49:30;18.94;80.50
65573;SHT30;52214;50.940;13.996;2022-08-01T04:51:56;18.83;80.79
65573;SHT30;52214;50.940;13.996;2022-08-01T04:54:30;19.08;77.90
65573;SHT30;52214;50.940;13.996;2022-08-01T04:56:58;19.21;75.93
65573;SHT30;52214;50.940;13.996;2022-08-01T04:59:28;19.25;76.14
65573;SHT30;52214;50.940;13.996;2022-08-01T05:02:16;19.36;76.40
65573;SHT30;52214;50.940;13.996;2022-08-01T05:04:42;19.48;74.52
65573;SHT30;52214;50.940;13.996;2022-08-01T05:07:09;19.70;74.65
65573;SHT30;52214;50.940;13.996;2022-08-01T05:09:35;19.94;73.42
65573;SHT30;52214;50.940;13.996;2022-08-01T05:12:04;19.91;73.01
65573;SHT30;52214;50.940;13.996;2022-08-01T05:14:31;20.06;72.68
65573;SHT30;52214;50.940;13.996;2022-08-01T05:17:02;20.31;71.83
65573;SHT30;52214;50.940;13.996;2022-08-01T05:19:30;20.52;72.01
65573;SHT30;52214;50.940;13.996;2022-08-01T05:21:58;20.65;71.46
65573;SHT30;52214;50.940;13.996;2022-08-01T05:24:24;20.65;71.39
65573;SHT30;52214;50.940;13.996;2022-08-01T05:26:49;20.97;70.81
65573;SHT30;52214;50.940;13.996;2022-08-01T05:29:15;20.97;69.62
65573;SHT30;52214;50.940;13.996;2022-08-01T05:31:40;20.96;70.16
65573;SHT30;52214;50.940;13.996;2022-08-01T05:34:06;20.93;70.59
65573;SHT30;52214;50.940;13.996;2022-08-01T05:36:31;20.91;70.66
65573;SHT30;52214;50.940;13.996;2022-08-01T05:38:57;21.10;71.07
65573;SHT30;52214;50.940;13.996;2022-08-01T05:41:22;21.24;71.30
65573;SHT30;52214;50.940;13.996;2022-08-01T05:43:48;21.34;70.92
65573;SHT30;52214;50.940;13.996;2022-08-01T05:46:13;21.32;71.11
65573;SHT30;52214;50.940;13.996;2022-08-01T05:48:39;21.27;71.06
65573;SHT30;52214;50.940;13.996;2022-08-01T05:51:04;21.41;70.48
65573;SHT30;52214;50.940;13.996;2022-08-01T05:53:30;21.34;70.87
65573;SHT30;52214;50.940;13.996;2022-08-01T05:55:55;21.38;71.01
65573;SHT30;52214;50.940;13.996;2022-08-01T05:58:22;21.32;71.61
65573;SHT30;52214;50.940;13.996;2022-08-01T06:00:47;21.46;71.67
65573;SHT30;52214;50.940;13.996;2022-08-01T06:03:13;21.31;72.76
65573;SHT30;52214;50.940;13.996;2022-08-01T06:05:39;21.27;73.76
65573;SHT30;52214;50.940;13.996;2022-08-01T06:08:05;21.61;73.03
65573;SHT30;52214;50.940;13.996;2022-08-01T06:10:30;21.39;73.80
65573;SHT30;52214;50.940;13.996;2022-08-01T06:12:56;21.59;73.43
65573;SHT30;52214;50.940;13.996;2022-08-01T06:15:21;21.75;73.46
65573;SHT30;52214;50.940;13.996;2022-08-01T06:17:47;21.78;73.88
65573;SHT30;52214;50.940;13.996;2022-08-01T06:20:12;21.48;74.10
65573;SHT30;52214;50.940;13.996;2022-08-01T06:22:38;21.65;73.75
65573;SHT30;52214;50.940;13.996;2022-08-01T06:25:04;21.72;74.33
65573;SHT30;52214;50.940;13.996;2022-08-01T06:27:30;21.88;73.41
65573;SHT30;52214;50.940;13.996;2022-08-01T06:29:55;22.03;72.21
65573;SHT30;52214;50.940;13.996;2022-08-01T06:32:22;21.79;73.06
65573;SHT30;52214;50.940;13.996;2022-08-01T06:34:51;22.06;71.63
65573;SHT30;52214;50.940;13.996;2022-08-01T06:37:17;21.93;72.16
65573;SHT30;52214;50.940;13.996;2022-08-01T06:39:44;22.03;72.82
65573;SHT30;52214;50.940;13.996;2022-08-01T06:42:10;22.45;72.05
65573;SHT30;52214;50.940;13.996;2022-08-01T06:44:35;22.34;72.13
65573;SHT30;52214;50.940;13.996;2022-08-01T06:47:01;22.16;72.60
65573;SHT30;52214;50.940;13.996;2022-08-01T06:49:27;22.07;73.26
65573;SHT30;52214;50.940;13.996;2022-08-01T06:51:52;22.30;72.56
65573;SHT30;52214;50.940;13.996;2022-08-01T06:54:18;21.99;72.70
65573;SHT30;52214;50.940;13.996;2022-08-01T06:56:43;21.80;73.17
65573;SHT30;52214;50.940;13.996;2022-08-01T06:59:09;21.69;73.32
65573;SHT30;52214;50.940;13.996;2022-08-01T07:01:34;21.69;73.97
65573;SHT30;52214;50.940;13.996;2022-08-01T07:04:01;21.45;74.64
65573;SHT30;52214;50.940;13.996;2022-08-01T07:06:27;21.39;75.16
65573;SHT30;52214;50.940;13.996;2022-08-01T07:08:53;21.71;73.98
65573;SHT30;52214;50.940;13.996;2022-08-01T07:11:23;21.80;73.98
65573;SHT30;52214;50.940;13.996;2022-08-01T07:13:48;21.75;74.81
65573;SHT30;52214;50.940;13.996;2022-08-01T07:16:15;21.88;74.31
65573;SHT30;52214;50.940;13.996;2022-08-01T07:18:41;21.66;74.98
65573;SHT30;52214;50.940;13.996;2022-08-01T07:21:07;21.69;75.03
65573;SHT30;52214;50.940;13.996;2022-08-01T07:23:32;21.67;75.19
65573;SHT30;52214;50.940;13.996;2022-08-01T07:25:58;21.73;74.60
65573;SHT30;52214;50.940;13.996;2022-08-01T07:28:24;21.59;75.33
65573;SHT30;52214;50.940;13.996;2022-08-01T07:30:50;21.45;76.28
65573;SHT30;52214;50.940;13.996;2022-08-01T07:33:15;21.45;76.58
65573;SHT30;52214;50.940;13.996;2022-08-01T07:35:41;21.44;76.74
65573;SHT30;52214;50.940;13.996;2022-08-01T07:38:07;21.28;77.36
65573;SHT30;52214;50.940;13.996;2022-08-01T07:40:33;21.48;77.04
65573;SHT30;52214;50.940;13.996;2022-08-01T07:42:58;21.12;79.25
65573;SHT30;52214;50.940;13.996;2022-08-01T07:45:24;20.96;79.85
65573;SHT30;52214;50.940;13.996;2022-08-01T07:47:49;21.07;81.99
65573;SHT30;52214;50.940;13.996;2022-08-01T07:50:16;21.12;82.21
65573;SHT30;52214;50.940;13.996;2022-08-01T07:52:42;20.79;84.88
65573;SHT30;52214;50.940;13.996;2022-08-01T07:55:08;20.93;85.03
65573;SHT30;52214;50.940;13.996;2022-08-01T07:57:34;20.46;87.28
65573;SHT30;52214;50.940;13.996;2022-08-01T08:00:00;20.11;88.36
65573;SHT30;52214;50.940;13.996;2022-08-01T08:02:26;20.28;89.85
65573;SHT30;52214;50.940;13.996;2022-08-01T08:04:52;20.24;90.05
65573;SHT30;52214;50.940;13.996;2022-08-01T08:07:17;20.71;88.96
65573;SHT30;52214;50.940;13.996;2022-08-01T08:09:43;20.96;88.40
65573;SHT30;52214;50.940;13.996;2022-08-01T08:12:08;21.00;86.37
65573;SHT30;52214;50.940;13.996;2022-08-01T08:14:34;20.63;88.24
65573;SHT30;52214;50.940;13.996;2022-08-01T08:17:00;20.46;88.46
65573;SHT30;52214;50.940;13.996;2022-08-01T08:19:25;20.89;88.05
65573;SHT30;52214;50.940;13.996;2022-08-01T08:21:51;20.44;90.00
65573;SHT30;52214;50.940;13.996;2022-08-01T08:24:16;21.24;87.72
65573;SHT30;52214;50.940;13.996;2022-08-01T08:26:45;21.51;86.56
65573;SHT30;52214;50.940;13.996;2022-08-01T08:29:11;20.96;88.21
65573;SHT30;52214;50.940;13.996;2022-08-01T08:31:37;21.24;86.25
65573;SHT30;52214;50.940;13.996;2022-08-01T08:34:03;21.58;86.61
65573;SHT30;52214;50.940;13.996;2022-08-01T08:36:28;21.94;85.08
65573;SHT30;52214;50.940;13.996;2022-08-01T08:38:54;22.21;84.62
65573;SHT30;52214;50.940;13.996;2022-08-01T08:41:21;22.28;85.19
65573;SHT30;52214;50.940;13.996;2022-08-01T08:43:47;22.62;84.58
65573;SHT30;52214;50.940;13.996;2022-08-01T08:46:14;21.42;84.22
65573;SHT30;52214;50.940;13.996;2022-08-01T08:48:41;22.18;84.03
65573;SHT30;52214;50.940;13.996;2022-08-01T08:51:08;22.44;83.31
65573;SHT30;52214;50.940;13.996;2022-08-01T08:53:38;21.86;83.24
65573;SHT30;52214;50.940;13.996;2022-08-01T08:56:06;22.11;82.27
65573;SHT30;52214;50.940;13.996;2022-08-01T08:58:34;21.90;81.23
65573;SHT30;52214;50.940;13.996;2022-08-01T09:01:05;23.23;82.76
65573;SHT30;52214;50.940;13.996;2022-08-01T09:03:32;22.73;81.01
65573;SHT30;52214;50.940;13.996;2022-08-01T09:05:58;22.98;83.07
65573;SHT30;52214;50.940;13.996;2022-08-01T09:08:24;22.63;80.76
65573;SHT30;52214;50.940;13.996;2022-08-01T09:10:49;22.71;81.03
65573;SHT30;52214;50.940;13.996;2022-08-01T09:13:15;22.55;80.41
65573;SHT30;52214;50.940;13.996;2022-08-01T09:15:53;23.10;79.55
65573;SHT30;52214;50.940;13.996;2022-08-01T09:18:26;23.11;79.51
65573;SHT30;52214;50.940;13.996;2022-08-01T09:21:17;23.24;78.98
65573;SHT30;52214;50.940;13.996;2022-08-01T09:23:46;23.57;78.68
65573;SHT30;52214;50.940;13.996;2022-08-01T09:26:14;23.71;78.29
65573;SHT30;52214;50.940;13.996;2022-08-01T09:28:41;23.86;78.58
65573;SHT30;52214;50.940;13.996;2022-08-01T09:31:09;24.20;77.14
65573;SHT30;52214;50.940;13.996;2022-08-01T09:33:49;25.20;73.41
65573;SHT30;52214;50.940;13.996;2022-08-01T09:36:15;24.64;74.05
65573;SHT30;52214;50.940;13.996;2022-08-01T09:38:41;24.38;72.59
65573;SHT30;52214;50.940;13.996;2022-08-01T09:41:07;23.88;76.38
65573;SHT30;52214;50.940;13.996;2022-08-01T09:43:33;24.48;72.98
65573;SHT30;52214;50.940;13.996;2022-08-01T09:46:04;24.50;73.58
65573;SHT30;52214;50.940;13.996;2022-08-01T09:48:30;25.74;70.96
65573;SHT30;52214;50.940;13.996;2022-08-01T09:50:58;25.71;70.40
65573;SHT30;52214;50.940;13.996;2022-08-01T09:53:24;25.85;69.69
65573;SHT30;52214;50.940;13.996;2022-08-01T09:55:50;25.22;67.03
65573;SHT30;52214;50.940;13.996;2022-08-01T09:58:17;24.99;69.79
65573;SHT30;52214;50.940;13.996;2022-08-01T10:00:58;24.78;71.23
65573;SHT30;52214;50.940;13.996;2022-08-01T10:03:26;24.85;70.83
65573;SHT30;52214;50.940;13.996;2022-08-01T10:05:52;25.10;70.66
65573;SHT30;52214;50.940;13.996;2022-08-01T10:08:19;25.28;68.93
65573;SHT30;52214;50.940;13.996;2022-08-01T10:11:05;25.57;67.84
65573;SHT30;52214;50.940;13.996;2022-08-01T10:13:32;25.62;66.57
65573;SHT30;52214;50.940;13.996;2022-08-01T10:15:57;25.67;64.80
65573;SHT30;52214;50.940;13.996;2022-08-01T10:18:23;26.43;63.97
65573;SHT30;52214;50.940;13.996;2022-08-01T10:20:49;26.58;64.18
65573;SHT30;52214;50.940;13.996;2022-08-01T10:23:15;26.89;62.62
65573;SHT30;52214;50.940;13.996;2022-08-01T10:25:43;26.96;60.95
65573;SHT30;52214;50.940;13.996;2022-08-01T10:28:16;27.12;61.73
65573;SHT30;52214;50.940;13.996;2022-08-01T10:30:43;27.92;59.49
65573;SHT30;52214;50.940;13.996;2022-08-01T10:33:10;27.20;59.79
65573;SHT30;52214;50.940;13.996;2022-08-01T10:35:38;28.13;57.61
65573;SHT30;52214;50.940;13.996;2022-08-01T10:38:03;27.57;58.60
65573;SHT30;52214;50.940;13.996;2022-08-01T10:40:30;27.32;59.69
65573;SHT30;52214;50.940;13.996;2022-08-01T10:42:56;27.99;57.90
65573;SHT30;52214;50.940;13.996;2022-08-01T10:45:22;27.37;57.84
65573;SHT30;52214;50.940;13.996;2022-08-01T10:48:02;28.06;57.59
65573;SHT30;52214;50.940;13.996;2022-08-01T10:50:39;28.09;56.52
65573;SHT30;52214;50.940;13.996;2022-08-01T10:53:23;28.51;56.38
65573;SHT30;52214;50.940;13.996;2022-08-01T10:55:57;27.57;59.11
65573;SHT30;52214;50.940;13.996;2022-08-01T10:58:29;26.94;59.47
65573;SHT30;52214;50.940;13.996;2022-08-01T11:01:20;26.77;60.76
65573;SHT30;52214;50.940;13.996;2022-08-01T11:04:01;27.71;58.09
65573;SHT30;52214;50.940;13.996;2022-08-01T11:09:01;28.23;55.23
65573;SHT30;52214;50.940;13.996;2022-08-01T11:11:27;28.79;54.87
65573;SHT30;52214;50.940;13.996;2022-08-01T11:16:31;27.32;58.79
65573;SHT30;52214;50.940;13.996;2022-08-01T11:18:57;26.70;61.58
65573;SHT30;52214;50.940;13.996;2022-08-01T11:32:55;28.50;54.34
65573;SHT30;52214;50.940;13.996;2022-08-01T11:35:22;27.00;57.61
65573;SHT30;52214;50.940;13.996;2022-08-01T11:37:53;27.17;58.57
65573;SHT30;52214;50.940;13.996;2022-08-01T11:40:24;27.15;57.97
65573;SHT30;52214;50.940;13.996;2022-08-01T11:45:53;30.23;50.90
65573;SHT30;52214;50.940;13.996;2022-08-01T11:48:25;30.87;49.19
65573;SHT30;52214;50.940;13.996;2022-08-01T11:50:56;30.57;48.62
65573;SHT30;52214;50.940;13.996;2022-08-01T11:53:21;28.81;53.00
65573;SHT30;52214;50.940;13.996;2022-08-01T11:55:54;28.67;53.26
65573;SHT30;52214;50.940;13.996;2022-08-01T11:58:22;31.14;49.86
65573;SHT30;52214;50.940;13.996;2022-08-01T12:00:52;33.14;45.90
65573;SHT30;52214;50.940;13.996;2022-08-01T12:03:27;31.10;48.38
65573;SHT30;52214;50.940;13.996;2022-08-01T12:05:53;29.50;53.20
65573;SHT30;52214;50.940;13.996;2022-08-01T12:08:27;28.57;54.51
65573;SHT30;52214;50.940;13.996;2022-08-01T12:10:53;28.72;54.26
65573;SHT30;52214;50.940;13.996;2022-08-01T12:13:20;28.15;56.68
65573;SHT30;52214;50.940;13.996;2022-08-01T12:15:46;29.76;54.08
65573;SHT30;52214;50.940;13.996;2022-08-01T12:18:12;31.16;48.95
65573;SHT30;52214;50.940;13.996;2022-08-01T12:20:39;29.57;51.64
65573;SHT30;52214;50.940;13.996;2022-08-01T12:23:07;29.20;53.18
65573;SHT30;52214;50.940;13.996;2022-08-01T12:25:35;28.42;55.74
65573;SHT30;52214;50.940;13.996;2022-08-01T12:28:06;27.77;57.21
65573;SHT30;52214;50.940;13.996;2022-08-01T12:30:33;27.53;58.11
65573;SHT30;52214;50.940;13.996;2022-08-01T12:33:06;28.43;57.50
65573;SHT30;52214;50.940;13.996;2022-08-01T12:35:33;27.19;60.75
65573;SHT30;52214;50.940;13.996;2022-08-01T12:38:05;26.47;62.56
65573;SHT30;52214;50.940;13.996;2022-08-01T12:40:33;26.03;64.65
65573;SHT30;52214;50.940;13.996;2022-08-01T12:43:04;25.99;65.01
65573;SHT30;52214;50.940;13.996;2022-08-01T12:45:34;26.19;65.23
65573;SHT30;52214;50.940;13.996;2022-08-01T12:48:01;26.61;64.40
65573;SHT30;52214;50.940;13.996;2022-08-01T12:50:31;26.77;63.09
65573;SHT30;52214;50.940;13.996;2022-08-01T12:52:57;27.10;63.11
65573;SHT30;52214;50.940;13.996;2022-08-01T12:55:25;27.29;61.71
65573;SHT30;52214;50.940;13.996;2022-08-01T12:58:09;26.99;61.71
65573;SHT30;52214;50.940;13.996;2022-08-01T13:00:36;30.26;55.15
65573;SHT30;52214;50.940;13.996;2022-08-01T13:03:06;31.57;50.24
65573;SHT30;52214;50.940;13.996;2022-08-01T13:05:49;32.53;47.17
65573;SHT30;52214;50.940;13.996;2022-08-01T13:08:29;33.56;46.14
65573;SHT30;52214;50.940;13.996;2022-08-01T13:11:03;33.92;44.83
65573;SHT30;52214;50.940;13.996;2022-08-01T13:16:05;34.41;45.01
65573;SHT30;52214;50.940;13.996;2022-08-01T13:18:33;35.10;43.69
65573;SHT30;52214;50.940;13.996;2022-08-01T13:21:18;34.44;43.76
65573;SHT30;52214;50.940;13.996;2022-08-01T13:24:04;32.96;45.59
65573;SHT30;52214;50.940;13.996;2022-08-01T13:26:48;31.97;48.12
65573;SHT30;52214;50.940;13.996;2022-08-01T13:29:17;29.66;52.40
65573;SHT30;52214;50.940;13.996;2022-08-01T13:31:44;29.73;52.65
65573;SHT30;52214;50.940;13.996;2022-08-01T13:34:10;29.74;52.32
65573;SHT30;52214;50.940;13.996;2022-08-01T13:36:37;30.98;48.72
65573;SHT30;52214;50.940;13.996;2022-08-01T13:39:03;31.65;48.48
65573;SHT30;52214;50.940;13.996;2022-08-01T13:41:48;33.21;45.26
65573;SHT30;52214;50.940;13.996;2022-08-01T13:44:14;34.00;43.06
65573;SHT30;52214;50.940;13.996;2022-08-01T13:46:41;34.83;40.39
65573;SHT30;52214;50.940;13.996;2022-08-01T13:49:09;35.35;39.83
65573;SHT30;52214;50.940;13.996;2022-08-01T13:51:35;35.65;39.55
65573;SHT30;52214;50.940;13.996;2022-08-01T13:54:01;36.95;37.04
65573;SHT30;52214;50.940;13.996;2022-08-01T13:56:27;36.24;37.19
65573;SHT30;52214;50.940;13.996;2022-08-01T13:58:54;37.09;36.39
65573;SHT30;52214;50.940;13.996;2022-08-01T14:01:20;36.26;36.85
65573;SHT30;52214;50.940;13.996;2022-08-01T14:03:46;37.76;35.69
65573;SHT30;52214;50.940;13.996;2022-08-01T14:06:12;36.44;36.46
65573;SHT30;52214;50.940;13.996;2022-08-01T14:08:37;36.13;36.60
65573;SHT30;52214;50.940;13.996;2022-08-01T14:11:03;36.32;36.17
65573;SHT30;52214;50.940;13.996;2022-08-01T14:13:29;35.72;36.57
65573;SHT30;52214;50.940;13.996;2022-08-01T14:15:54;36.45;35.89
65573;SHT30;52214;50.940;13.996;2022-08-01T14:18:20;37.36;35.69
65573;SHT30;52214;50.940;13.996;2022-08-01T14:20:46;37.26;34.85
65573;SHT30;52214;50.940;13.996;2022-08-01T14:23:11;37.30;35.14
65573;SHT30;52214;50.940;13.996;2022-08-01T14:25:38;35.95;36.91
65573;SHT30;52214;50.940;13.996;2022-08-01T14:28:04;38.12;34.51
65573;SHT30;52214;50.940;13.996;2022-08-01T14:30:30;38.00;33.82
65573;SHT30;52214;50.940;13.996;2022-08-01T14:32:56;38.08;35.10
65573;SHT30;52214;50.940;13.996;2022-08-01T14:35:21;38.78;33.44
65573;SHT30;52214;50.940;13.996;2022-08-01T14:37:47;38.50;34.30
65573;SHT30;52214;50.940;13.996;2022-08-01T14:40:12;38.16;34.23
65573;SHT30;52214;50.940;13.996;2022-08-01T14:42:38;38.80;33.03
65573;SHT30;52214;50.940;13.996;2022-08-01T14:45:05;37.87;33.85
65573;SHT30;52214;50.940;13.996;2022-08-01T14:47:43;38.64;33.39
65573;SHT30;52214;50.940;13.996;2022-08-01T14:50:11;35.47;36.95
65573;SHT30;52214;50.940;13.996;2022-08-01T14:52:38;37.74;34.95
65573;SHT30;52214;50.940;13.996;2022-08-01T14:55:05;35.95;36.10
65573;SHT30;52214;50.940;13.996;2022-08-01T14:57:33;36.20;36.09
65573;SHT30;52214;50.940;13.996;2022-08-01T14:59:59;36.02;36.82
65573;SHT30;52214;50.940;13.996;2022-08-01T15:02:25;36.34;35.89
65573;SHT30;52214;50.940;13.996;2022-08-01T15:04:50;36.30;36.47
65573;SHT30;52214;50.940;13.996;2022-08-01T15:07:17;35.43;37.04
65573;SHT30;52214;50.940;13.996;2022-08-01T15:09:43;33.92;39.60
65573;SHT30;52214;50.940;13.996;2022-08-01T15:12:09;33.97;39.36
65573;SHT30;52214;50.940;13.996;2022-08-01T15:14:35;35.27;37.06
65573;SHT30;52214;50.940;13.996;2022-08-01T15:17:23;35.30;37.46
65573;SHT30;52214;50.940;13.996;2022-08-01T15:19:53;35.18;37.42
65573;SHT30;52214;50.940;13.996;2022-08-01T15:22:20;35.81;36.62
65573;SHT30;52214;50.940;13.996;2022-08-01T15:24:47;33.69;38.93
65573;SHT30;52214;50.940;13.996;2022-08-01T15:27:13;32.27;41.57
65573;SHT30;52214;50.940;13.996;2022-08-01T15:29:38;32.88;41.31
65573;SHT30;52214;50.940;13.996;2022-08-01T15:32:05;32.87;41.42
65573;SHT30;52214;50.940;13.996;2022-08-01T15:34:32;31.43;43.38
65573;SHT30;52214;50.940;13.996;2022-08-01T15:36:58;30.92;44.32
65573;SHT30;52214;50.940;13.996;2022-08-01T15:39:23;30.26;45.65
65573;SHT30;52214;50.940;13.996;2022-08-01T15:41:49;30.35;45.46
65573;SHT30;52214;50.940;13.996;2022-08-01T15:44:15;30.71;44.63
65573;SHT30;52214;50.940;13.996;2022-08-01T15:46:46;31.28;44.35
65573;SHT30;52214;50.940;13.996;2022-08-01T15:49:11;31.47;44.05
65573;SHT30;52214;50.940;13.996;2022-08-01T15:51:37;30.85;45.26
65573;SHT30;52214;50.940;13.996;2022-08-01T15:54:02;31.28;44.30
65573;SHT30;52214;50.940;13.996;2022-08-01T15:56:34;32.14;42.94